Time;durP1;ratioP1;P1;durP2;ratioP2;P2;SDS_P1;SDS_P2;PMS_P1;PMS_P2;Temp;Humidity;BMP_temperature;BMP_pressure;BME280_temperature;BME280_humidity;BME280_pressure;Samples;Min_cycle;Max_cycle;Signal;HPM_P1;HPM_P2
2023/11/06 01:02:48;;;;;;;;;3.00;3.00;;;;;13.66;79.56;99339.31;6104204;22;46507;-81
2023/11/06 01:05:13;;;;;;;;;2.67;1.00;;;;;13.42;79.25;99331.81;6247088;22;45353;-82
2023/11/06 01:07:40;;;;;;;;;1.33;1.33;;;;;13.57;80.01;99328.81;6248035;22;45337;-81
2023/11/06 01:10:07;;;;;;;;;3.00;1.67;;;;;13.43;79.86;99331.78;6247595;22;45037;-81
2023/11/06 01:12:33;;;;;;;;;1.67;1.33;;;;;13.44;80.24;99340.69;6248880;22;45603;-81
2023/11/06 01:14:59;;;;;;;;;1.75;1.75;;;;;13.40;80.28;99338.06;6220622;22;45406;-82
2023/11/06 01:17:25;;;;;;;;;2.25;1.75;;;;;13.36;80.23;99331.03;6250293;22;44778;-81
2023/11/06 01:19:51;;;;;;;;;3.75;1.00;;;;;13.33;80.36;99325.75;6221336;22;47435;-81
2023/11/06 01:22:16;;;;;;;;;1.00;1.00;;;;;13.32;80.13;99326.66;6248102;22;45417;-81
2023/11/06 01:24:42;;;;;;;;;2.50;2.50;;;;;13.31;80.69;99338.25;6221395;22;45463;-82
2023/11/06 01:27:08;;;;;;;;;1.00;1.00;;;;;13.38;80.99;99344.34;6247544;22;44866;-81
2023/11/06 01:29:34;;;;;;;;;1.75;1.25;;;;;13.36;80.86;99347.03;6218376;22;47207;-81
2023/11/06 01:31:59;;;;;;;;;2.75;1.75;;;;;13.37;80.98;99347.91;6218342;22;52793;-82
2023/11/06 01:34:25;;;;;;;;;3.00;3.00;;;;;13.39;81.45;99360.34;6218099;22;45485;-83
2023/11/06 01:36:50;;;;;;;;;2.67;2.33;;;;;13.31;81.79;99354.28;6217357;22;45388;-82
2023/11/06 01:39:16;;;;;;;;;2.00;2.00;;;;;13.36;81.33;99360.38;6218591;22;47009;-81
2023/11/06 01:41:41;;;;;;;;;3.33;3.33;;;;;13.36;81.62;99362.19;6247709;22;45543;-82
2023/11/06 01:44:07;;;;;;;;;4.00;2.00;;;;;13.33;81.38;99351.56;6247519;22;45300;-81
2023/11/06 01:46:34;;;;;;;;;3.33;2.33;;;;;13.36;81.54;99368.41;6248250;22;45683;-82
2023/11/06 01:49:00;;;;;;;;;1.00;1.00;;;;;13.30;81.37;99351.63;6247711;22;46514;-83
2023/11/06 01:52:10;;;;;;;;;1.67;1.67;;;;;13.64;81.20;99367.88;6220180;22;45445;-82
2023/11/06 01:54:36;;;;;;;;;6.00;2.00;;;;;13.34;81.55;99358.66;6221350;22;45371;-82
2023/11/06 01:57:03;;;;;;;;;2.33;1.33;;;;;13.37;81.82;99351.50;6222105;22;45234;-82
2023/11/06 01:59:28;;;;;;;;;1.67;1.67;;;;;13.31;81.42;99364.97;6218848;22;46212;-82
2023/11/06 02:31:00;;;;;;;;;2.00;1.00;;;;;13.46;82.01;99374.44;6188745;22;46169;-82
2023/11/06 02:33:26;;;;;;;;;2.00;2.00;;;;;13.15;82.27;99380.34;6219889;22;45395;-82
2023/11/06 02:35:51;;;;;;;;;2.75;2.75;;;;;13.13;82.25;99371.50;6219431;22;47067;-82
2023/11/06 02:38:17;;;;;;;;;3.00;1.75;;;;;13.13;82.09;99376.81;6221592;22;45385;-83
2023/11/06 02:44:04;;;;;;;;;1.00;1.00;;;;;13.11;81.91;99388.41;6248009;22;45336;-83
2023/11/06 02:46:30;;;;;;;;;1.00;1.00;;;;;13.15;82.23;99395.50;6246489;22;47279;-83
2023/11/06 02:48:56;;;;;;;;;1.00;1.00;;;;;13.10;82.61;99395.56;6221651;22;45423;-83
2023/11/06 02:51:21;;;;;;;;;4.67;2.00;;;;;13.08;82.85;99389.34;6221435;22;45477;-83
2023/11/06 02:53:48;;;;;;;;;3.75;1.25;;;;;13.19;83.16;99398.06;6220615;22;45539;-83
2023/11/06 02:56:13;;;;;;;;;1.67;1.67;;;;;13.05;83.72;99393.88;6220462;22;47363;-83
2023/11/06 02:58:40;;;;;;;;;4.33;2.33;;;;;13.07;83.46;99397.38;6221226;22;45297;-83
2023/11/06 03:01:05;;;;;;;;;4.50;1.50;;;;;13.03;83.55;99396.59;6248312;22;45283;-83
2023/11/06 03:03:32;;;;;;;;;1.00;1.00;;;;;13.22;83.99;99397.13;6220146;22;45211;-83
2023/11/06 03:05:57;;;;;;;;;4.67;2.00;;;;;13.07;83.86;99400.97;6222160;22;47442;-83
2023/11/06 03:08:23;;;;;;;;;2.67;2.00;;;;;13.05;83.67;99393.88;6221554;22;45416;-83
2023/11/06 03:10:49;;;;;;;;;1.00;1.00;;;;;13.11;83.92;99383.97;6249575;22;45404;-82
2023/11/06 03:13:20;;;;;;;;;2.00;1.00;;;;;13.12;83.96;99395.53;6221852;22;45400;-83
2023/11/06 03:15:46;;;;;;;;;7.00;4.00;;;;;13.14;84.34;99401.72;6218779;22;46828;-83
2023/11/06 03:18:12;;;;;;;;;3.33;2.00;;;;;13.12;84.64;99403.53;6247984;22;44897;-83
2023/11/06 03:20:39;;;;;;;;;3.33;3.33;;;;;13.19;84.94;99408.75;6246929;22;45386;-83
2023/11/06 03:23:05;;;;;;;;;2.00;2.00;;;;;13.05;84.29;99393.88;6248989;22;45320;-82
2023/11/06 03:25:31;;;;;;;;;3.00;1.67;;;;;13.08;84.58;99404.50;6246363;22;47780;-82
2023/11/06 03:27:56;;;;;;;;;2.00;2.00;;;;;13.09;84.87;99407.16;6248661;22;45388;-82
2023/11/06 03:31:08;;;;;;;;;2.00;2.00;;;;;13.35;84.65;99414.72;6218275;22;44794;-82
2023/11/06 03:33:33;;;;;;;;;1.33;1.33;;;;;13.05;84.79;99420.56;6222057;22;45349;-82
2023/11/06 03:36:03;;;;;;;;;5.00;3.00;;;;;13.24;85.61;99408.66;6221151;22;46843;-82
2023/11/06 03:38:29;;;;;;;;;2.00;2.00;;;;;12.96;85.85;99395.78;6248513;22;45736;-83
2023/11/06 03:40:55;;;;;;;;;3.00;2.00;;;;;12.95;85.69;99412.72;6249264;22;45805;-82
2023/11/06 03:43:21;;;;;;;;;1.00;1.00;;;;;12.97;86.44;99407.38;6220060;22;45514;-82
2023/11/06 03:45:46;;;;;;;;;2.00;1.00;;;;;12.94;86.31;99416.28;6219305;22;47022;-82
2023/11/06 03:48:12;;;;;;;;;2.67;2.00;;;;;12.89;87.29;99410.16;6245579;22;45353;-82
2023/11/06 03:50:42;;;;;;;;;1.00;1.00;;;;;12.91;86.99;99411.00;6245434;22;45327;-82
2023/11/06 03:53:13;;;;;;;;;3.00;2.33;;;;;12.87;87.11;99409.31;6248494;22;45329;-81
2023/11/06 03:55:39;;;;;;;;;1.00;1.00;;;;;12.92;86.76;99410.09;6196058;22;47622;-82
2023/11/06 03:58:04;;;;;;;;;2.67;2.67;;;;;12.92;87.18;99419.91;6250081;22;45699;-81
2023/11/06 04:00:30;;;;;;;;;2.00;2.00;;;;;12.90;86.44;99411.91;6251473;22;45352;-81
2023/11/06 04:02:56;;;;;;;;;2.00;2.00;;;;;12.89;86.37;99404.81;6248768;22;45416;-81
2023/11/06 04:05:21;;;;;;;;;1.00;1.00;;;;;12.89;86.25;99418.16;6247449;22;45857;-81
2023/11/06 04:07:47;;;;;;;;;1.67;1.67;;;;;12.91;86.92;99408.34;6248761;22;45294;-82
2023/11/06 04:10:12;;;;;;;;;2.33;1.00;;;;;12.88;86.30;99415.50;6221430;22;45355;-81
2023/11/06 04:12:38;;;;;;;;;4.00;3.00;;;;;12.88;86.87;99418.19;6249619;22;44832;-82
2023/11/06 04:15:07;;;;;;;;;2.00;1.00;;;;;13.01;87.09;99403.75;6220552;22;48012;-81
2023/11/06 04:17:33;;;;;;;;;1.67;1.67;;;;;12.84;87.32;99412.00;6221158;22;45419;-81
2023/11/06 04:19:58;;;;;;;;;1.33;1.00;;;;;12.86;86.78;99415.53;6219667;22;45422;-81
2023/11/06 04:22:24;;;;;;;;;1.00;1.00;;;;;12.88;87.61;99416.38;6218930;22;45387;-82
2023/11/06 04:24:49;;;;;;;;;3.00;1.67;;;;;12.87;87.90;99417.31;6217694;22;46819;-81
2023/11/06 04:27:15;;;;;;;;;4.67;4.00;;;;;12.88;87.01;99412.84;6245900;22;45318;-81
2023/11/06 04:29:40;;;;;;;;;2.00;2.00;;;;;12.93;87.25;99425.22;6247361;22;45390;-81
2023/11/06 04:32:06;;;;;;;;;2.00;2.00;;;;;12.94;87.65;99428.75;6246884;22;45729;-81
2023/11/06 04:34:31;;;;;;;;;7.00;3.00;;;;;13.00;87.21;99442.88;6219711;22;47430;-82
2023/11/06 04:36:56;;;;;;;;;1.33;1.33;;;;;13.08;87.53;99453.41;6247342;22;45400;-81
2023/11/06 04:39:22;;;;;;;;;2.33;2.33;;;;;13.05;87.25;99436.56;6220404;22;45297;-82
2023/11/06 04:41:47;;;;;;;;;3.33;3.33;;;;;13.14;88.81;99460.44;6248695;22;45408;-82
2023/11/06 04:44:12;;;;;;;;;2.33;1.67;;;;;13.12;88.42;99451.59;6247836;22;45213;-82
2023/11/06 04:46:38;;;;;;;;;2.00;2.00;;;;;13.14;87.61;99452.44;6247299;22;45272;-82
2023/11/06 04:49:03;;;;;;;;;3.33;3.33;;;;;13.14;87.26;99450.66;6221164;22;45349;-81
2023/11/06 04:51:29;;;;;;;;;3.33;1.33;;;;;13.12;87.72;99451.59;6220249;22;45310;-81
2023/11/06 04:53:54;;;;;;;;;2.00;0.67;;;;;13.14;87.45;99458.66;6248793;22;45995;-82
2023/11/06 04:57:03;;;;;;;;;4.00;2.00;;;;;13.48;87.54;99457.22;6221401;22;45621;-82
2023/11/06 04:59:28;;;;;;;;;1.67;1.67;;;;;13.21;87.60;99464.78;6248333;22;45321;-82
2023/11/06 05:01:53;;;;;;;;;4.00;2.00;;;;;13.25;87.87;99455.81;6222136;22;45338;-81
2023/11/06 07:01:38;;;;;;;;;1.33;1.33;;;;;13.90;83.50;99529.47;6148126;22;46319;-81
2023/11/06 07:04:07;;;;;;;;;2.00;2.00;;;;;13.70;84.40;99530.72;6269084;22;44736;-82
2023/11/06 07:06:33;;;;;;;;;2.33;1.00;;;;;13.62;84.25;99535.31;6241437;22;47356;-83
2023/11/06 07:09:00;;;;;;;;;1.67;1.67;;;;;13.56;84.32;99538.09;6216461;22;45062;-82
2023/11/06 07:11:26;;;;;;;;;3.00;1.33;;;;;13.68;84.32;99545.03;6268536;22;44860;-82
2023/11/06 07:13:52;;;;;;;;;1.67;1.33;;;;;13.50;84.34;99539.06;6242205;22;44836;-83
2023/11/06 07:16:21;;;;;;;;;1.00;1.00;;;;;13.60;84.11;99551.38;6266412;22;44848;-82
2023/11/06 07:18:47;;;;;;;;;1.00;1.00;;;;;13.66;84.03;99561.06;6268346;22;44888;-83
2023/11/06 09:02:37;;;;;;;;;0.00;0.00;;;;;14.81;76.98;99622.19;6132956;22;46519;-82
2023/11/06 09:05:06;;;;;;;;;1.00;1.00;;;;;14.79;77.02;99645.44;6251335;22;45359;-83
2023/11/06 09:08:12;;;;;;;;;0.00;0.00;;;;;15.15;76.51;99642.88;6226704;22;45629;-85
2023/11/06 09:10:41;;;;;;;;;0.75;0.75;;;;;14.93;76.77;99605.84;6134699;22;45642;-84
2023/11/06 09:13:34;;;;;;;;;;;;;;;;;;;;;
2023/11/06 09:16:30;;;;;;;;;0.00;0.00;;;;;15.44;75.06;99666.31;6209968;22;74429;-82
2023/11/06 09:29:18;;;;;;;;;2.00;1.00;;;;;15.57;74.43;99657.06;6243450;22;45414;-85
2023/11/06 09:31:45;;;;;;;;;0.00;0.00;;;;;15.48;73.93;99677.84;6226211;22;45380;-86
2023/11/06 09:35:00;;;;;;;;;1.50;0.00;;;;;15.72;73.68;99682.66;6223237;22;45380;-84
2023/11/06 09:38:18;;;;;;;;;2.00;1.00;;;;;15.72;72.73;99684.44;6189048;22;45424;-85
2023/11/06 09:44:13;;;;;;;;;1.00;1.00;;;;;15.38;73.39;99659.28;6130971;23;45406;-84
2023/11/06 09:46:44;;;;;;;;;1.67;1.67;;;;;15.65;72.91;99699.75;6107708;23;45460;-83
2023/11/06 09:49:26;;;;;;;;;;;;;;;;;;;;;
2023/11/06 09:51:55;;;;;;;;;2.00;0.00;;;;;15.53;73.19;99702.72;6132963;23;73072;-82
2023/11/06 09:54:25;;;;;;;;;2.00;0.50;;;;;15.45;73.14;99688.63;6136841;23;44861;-83
2023/11/06 09:56:57;;;;;;;;;1.25;1.00;;;;;15.35;73.20;99664.72;6134111;23;45484;-83
2023/11/06 09:59:22;;;;;;;;;1.75;0.50;;;;;15.66;73.08;99704.22;6130494;23;45483;-83
2023/11/06 10:02:14;;;;;;;;;1.00;1.00;;;;;16.20;72.43;99725.28;6131464;23;45456;-87
2023/11/06 10:04:42;;;;;;;;;1.75;0.00;;;;;16.23;72.42;99732.34;6131404;23;45369;-83
2023/11/06 10:07:40;;;;;;;;;0.50;0.50;;;;;16.50;72.30;99730.78;6104210;23;45454;-84
2023/11/06 10:10:13;;;;;;;;;0.75;0.75;;;;;16.70;71.17;99729.34;6157158;22;45287;-83
2023/11/06 10:12:41;;;;;;;;;1.00;1.00;;;;;16.56;71.80;99729.72;6196671;22;45333;-83
2023/11/06 10:15:29;;;;;;;;;1.00;0.25;;;;;16.60;69.99;99708.13;6201080;22;45399;-85
2023/11/06 10:18:11;;;;;;;;;1.25;1.25;;;;;16.76;69.65;99732.75;6175435;22;44765;-84
2023/11/06 10:21:04;;;;;;;;;0.00;0.00;;;;;16.89;69.34;99709.16;6224434;22;45527;-85
2023/11/06 10:23:40;;;;;;;;;1.00;1.00;;;;;16.63;69.64;99690.19;6203446;22;44870;-84
2023/11/06 10:26:11;;;;;;;;;1.00;1.00;;;;;16.76;68.62;99721.13;6201178;22;44785;-84
2023/11/06 10:28:49;;;;;;;;;;;;;;;;;;;;;
2023/11/06 10:31:15;;;;;;;;;1.00;1.00;;;;;16.41;69.09;99728.31;6190861;23;75280;-84
2023/11/06 10:33:47;;;;;;;;;3.25;3.00;;;;;16.16;68.57;99698.56;6192139;22;45366;-86
2023/11/06 10:36:22;;;;;;;;;1.00;1.00;;;;;16.39;69.56;99711.38;6192674;23;45402;-83
2023/11/06 10:52:38;;;;;;;;;2.75;1.75;;;;;16.96;67.73;99717.91;6194740;22;44708;-85
2023/11/06 10:55:16;;;;;;;;;3.25;2.00;;;;;16.92;68.41;99711.72;6193496;23;46811;-85
2023/11/06 11:44:56;;;;;;;;;;;;;;;;;;;;;
2023/11/06 11:47:54;;;;;;;;;0.50;0.00;;;;;17.39;63.74;99685.28;6167288;22;74391;-81
2023/11/06 11:51:12;;;;;;;;;2.00;0.00;;;;;17.40;63.16;99703.16;6214110;22;45431;-80
2023/11/06 11:54:07;;;;;;;;;2.00;2.00;;;;;17.45;63.46;99727.22;6098178;23;45934;-80
2023/11/06 11:57:16;;;;;;;;;2.50;2.00;;;;;17.44;63.46;99720.06;6100530;23;45354;-81
2023/11/06 12:00:10;;;;;;;;;1.25;1.00;;;;;17.42;63.53;99724.63;5959217;23;45409;-82
2023/11/06 12:03:06;;;;;;;;;1.50;1.50;;;;;17.39;63.39;99698.72;5936742;23;45170;-82
2023/11/06 12:06:09;;;;;;;;;3.75;2.50;;;;;17.47;63.40;99702.97;6055556;22;45774;-82
2023/11/06 12:08:40;;;;;;;;;1.00;1.00;;;;;17.48;63.76;99700.25;6201992;22;44904;-80
2023/11/06 12:16:18;;;;;;;;;3.00;1.00;;;;;17.20;63.28;99698.38;6191616;22;45694;-81
2023/11/06 12:26:50;;;;;;;;;0.00;0.00;;;;;17.66;63.46;99701.47;6135775;22;46791;-81
2023/11/06 12:41:38;;;;;;;;;2.00;1.50;;;;;18.59;60.72;99723.53;6232103;22;44793;-81
2023/11/06 12:44:15;;;;;;;;;1.00;1.00;;;;;18.30;60.61;99694.91;6180467;22;47051;-81
2023/11/06 12:46:44;;;;;;;;;1.50;1.50;;;;;18.03;59.79;99691.34;6179716;23;44708;-82
2023/11/06 12:49:18;;;;;;;;;1.00;1.00;;;;;18.31;59.55;99715.53;6181236;22;47095;-80
2023/11/06 12:57:54;;;;;;;;;;;;;;;;;;;;;
2023/11/06 13:03:11;;;;;;;;;1.00;1.00;;;;;18.15;60.98;99707.97;6266861;22;44906;-83
2023/11/06 13:42:24;;;;;;;;;1.00;1.00;;;;;18.84;58.05;99734.31;6078736;22;46528;-77
2023/11/06 13:47:40;;;;;;;;;;;;;;;;;;;;;
2023/11/06 14:06:04;;;;;;;;;1.50;0.50;;;;;18.46;58.50;99711.41;6138079;22;46176;-82
2023/11/06 15:15:53;;;;;;;;;2.00;1.25;;;;;17.51;59.34;99769.16;6152955;22;46368;-81
2023/11/06 15:18:20;;;;;;;;;1.00;1.00;;;;;17.32;60.06;99758.06;6212262;22;44834;-83
2023/11/06 15:20:46;;;;;;;;;5.67;5.00;;;;;16.92;60.09;99743.97;6235061;22;44781;-82
2023/11/06 15:23:14;;;;;;;;;1.50;1.00;;;;;16.99;60.50;99772.44;6234001;22;45145;-81
2023/11/06 15:31:05;;;;;;;;;1.75;0.75;;;;;17.09;61.00;99782.94;6190962;22;44801;-82
2023/11/06 15:33:31;;;;;;;;;1.75;1.50;;;;;16.84;61.46;99783.56;6168121;23;47279;-81
2023/11/06 15:36:00;;;;;;;;;1.25;1.00;;;;;17.14;61.48;99794.41;6169011;23;45283;-81
2023/11/06 15:38:42;;;;;;;;;2.50;1.50;;;;;17.15;61.44;99804.25;6168091;23;44892;-81
2023/11/06 15:45:10;;;;;;;;;1.00;1.00;;;;;17.30;61.52;99795.72;6192213;23;44887;-82
2023/11/06 15:52:14;;;;;;;;;1.00;1.00;;;;;16.95;61.34;99813.72;6025046;23;44944;-82
2023/11/06 15:55:28;;;;;;;;;;;;;;;;;;;;;
2023/11/06 16:01:52;;;;;;;;;1.25;0.75;;;;;16.62;62.86;99818.13;5942984;23;44880;-82
2023/11/06 16:04:46;;;;;;;;;1.50;0.75;;;;;16.56;63.01;99820.97;5944254;23;44858;-81
2023/11/06 16:13:06;;;;;;;;;;;;;;;;;;;;;
2023/11/06 16:16:04;;;;;;;;;1.50;1.50;;;;;16.26;65.17;99833.34;6205720;22;67874;-81
2023/11/06 16:18:41;;;;;;;;;2.00;2.00;;;;;16.00;65.30;99830.34;6182668;22;45212;-81
2023/11/06 16:24:47;;;;;;;;;1.00;1.00;;;;;15.98;65.59;99842.03;6183570;22;44819;-82
2023/11/06 16:27:44;;;;;;;;;2.00;0.75;;;;;15.75;65.89;99822.00;6178263;22;44832;-81
2023/11/06 16:32:59;;;;;;;;;1.00;0.00;;;;;15.69;66.04;99822.06;6186118;22;46919;-81
2023/11/06 16:38:36;;;;;;;;;2.00;2.00;;;;;15.57;65.75;99822.31;6226914;22;44932;-81
2023/11/06 16:41:36;;;;;;;;;;;;;;;;;;;;;
2023/11/06 16:44:10;;;;;;;;;3.00;1.00;;;;;15.53;66.50;99858.16;6223425;22;75266;-82
2023/11/06 16:49:58;;;;;;;;;1.75;0.75;;;;;15.44;66.79;99863.72;6223278;22;45230;-81
2023/11/06 16:52:23;;;;;;;;;2.00;2.00;;;;;15.58;66.94;99891.97;6198975;22;44833;-80
2023/11/06 16:54:52;;;;;;;;;1.25;1.25;;;;;15.37;67.08;99862.94;6223951;22;45414;-80
2023/11/06 16:57:24;;;;;;;;;1.00;1.00;;;;;15.65;66.78;99883.81;6222728;22;45304;-81
2023/11/06 16:59:49;;;;;;;;;3.50;2.50;;;;;15.30;67.29;99855.94;6221158;22;45400;-80
2023/11/06 17:02:24;;;;;;;;;1.00;1.00;;;;;15.60;67.29;99891.97;6197891;22;45434;-81
2023/11/06 17:04:59;;;;;;;;;;;;;;;;;;;;;
2023/11/06 17:08:17;;;;;;;;;1.00;1.00;;;;;15.51;67.29;99865.34;6231981;22;72063;-82
2023/11/06 17:10:34;;;;;;;;;2.00;2.00;;;;;15.34;67.61;99885.31;6232120;22;44797;-82
2023/11/06 17:13:01;;;;;;;;;2.00;2.00;;;;;15.39;67.62;99910.25;6237091;22;44795;-82
2023/11/06 17:16:38;;;;;;;;;1.67;1.67;;;;;15.67;67.38;99912.34;6235595;22;45566;-81
2023/11/06 17:19:28;;;;;;;;;4.00;2.00;;;;;15.35;67.71;99891.53;6261049;22;44933;-82
2023/11/06 17:22:21;;;;;;;;;2.00;2.00;;;;;15.36;68.60;99904.91;6218795;22;44936;-82
2023/11/06 17:24:55;;;;;;;;;3.00;3.00;;;;;15.17;68.70;99877.59;6208395;22;44810;-81
2023/11/06 17:32:43;;;;;;;;;3.00;3.00;;;;;15.04;69.37;99889.44;6203447;22;44911;-82
2023/11/06 17:35:09;;;;;;;;;2.00;2.00;;;;;14.85;69.98;99886.22;6237016;22;44763;-82
2023/11/06 17:37:38;;;;;;;;;2.00;2.00;;;;;15.05;69.85;99876.94;6210117;22;47164;-82
2023/11/06 17:44:03;;;;;;;;;3.00;1.00;;;;;15.39;70.03;99931.66;6203422;22;44889;-81
2023/11/06 17:49:20;;;;;;;;;3.67;2.00;;;;;15.25;70.77;99924.78;6185665;22;46719;-83
2023/11/06 17:52:21;;;;;;;;;2.50;2.50;;;;;15.04;70.85;99902.84;6242326;22;44870;-82
2023/11/06 17:54:49;;;;;;;;;3.75;3.75;;;;;15.00;71.21;99936.81;6266122;22;45017;-82
2023/11/06 17:58:10;;;;;;;;;;;;;;;;;;;;;
2023/11/06 18:07:37;;;;;;;;;3.00;3.00;;;;;14.99;70.80;99951.13;6262418;22;44806;-81
2023/11/06 18:10:06;;;;;;;;;4.00;4.00;;;;;14.56;71.93;99911.66;6264713;22;44909;-81
2023/11/06 18:12:32;;;;;;;;;2.67;2.67;;;;;14.74;72.19;99960.44;6238059;22;47020;-82
2023/11/06 18:14:58;;;;;;;;;2.33;2.33;;;;;14.52;72.01;99930.41;6264778;22;44947;-81
2023/11/06 18:17:23;;;;;;;;;4.00;1.33;;;;;14.46;71.75;99919.81;6266175;22;45051;-81
2023/11/06 18:19:49;;;;;;;;;3.33;2.33;;;;;14.44;71.93;99927.88;6267238;22;44831;-81
2023/11/06 18:22:14;;;;;;;;;3.00;3.00;;;;;14.55;71.79;99952.66;6266470;22;45459;-83
2023/11/06 18:24:41;;;;;;;;;2.00;2.00;;;;;14.78;71.81;99970.19;6266609;22;44767;-81
2023/11/06 18:27:09;;;;;;;;;3.67;3.00;;;;;14.41;71.63;99944.84;6266773;22;44871;-81
2023/11/06 18:29:34;;;;;;;;;4.00;2.00;;;;;14.30;72.01;99935.19;6266584;22;44925;-81
2023/11/06 18:32:00;;;;;;;;;3.33;2.33;;;;;14.44;72.12;99951.97;6265716;22;45109;-81
2023/11/06 18:34:28;;;;;;;;;2.67;2.67;;;;;14.47;72.12;99938.53;6266755;22;44875;-81
2023/11/06 18:36:53;;;;;;;;;1.67;1.67;;;;;14.31;72.58;99947.69;6244844;22;44916;-81
2023/11/06 18:39:20;;;;;;;;;5.00;3.67;;;;;14.41;72.46;99976.94;6268616;22;44807;-81
2023/11/06 18:41:46;;;;;;;;;1.33;1.00;;;;;14.39;72.33;99969.84;6207912;22;47276;-82
2023/11/06 18:44:12;;;;;;;;;3.33;3.00;;;;;14.41;72.47;99982.28;6266025;22;44867;-82
2023/11/06 18:46:38;;;;;;;;;2.00;2.00;;;;;14.35;72.90;99970.81;6239579;22;44836;-82
2023/11/06 18:49:07;;;;;;;;;3.00;3.00;;;;;14.27;72.62;99986.94;6240541;22;44950;-82
2023/11/06 18:51:35;;;;;;;;;6.50;4.00;;;;;14.34;72.85;99982.38;6255826;22;45111;-82
2023/11/06 18:54:01;;;;;;;;;3.00;3.00;;;;;14.26;72.86;99989.63;6237307;22;44917;-82
2023/11/06 18:56:27;;;;;;;;;4.67;3.67;;;;;14.29;73.02;100001.19;6210349;22;44896;-81
2023/11/06 18:58:53;;;;;;;;;2.00;2.00;;;;;14.24;72.82;99996.78;6236316;22;45320;-82
2023/11/06 19:01:19;;;;;;;;;3.33;3.33;;;;;14.37;72.92;100015.34;6209342;22;45076;-81
2023/11/06 19:03:48;;;;;;;;;6.67;4.67;;;;;14.48;72.90;99993.81;6209704;22;44856;-82
2023/11/06 19:06:20;;;;;;;;;3.33;3.33;;;;;14.55;72.91;100032.06;6237524;22;44826;-82
2023/11/06 19:08:48;;;;;;;;;2.75;2.00;;;;;14.44;72.71;99975.13;6209910;22;44924;-82
2023/11/06 19:13:52;;;;;;;;;3.67;3.67;;;;;14.78;72.87;100046.06;6228285;22;44818;-81
2023/11/06 19:16:17;;;;;;;;;3.00;2.75;;;;;14.47;72.43;100018.78;6235456;22;44931;-82
2023/11/06 19:18:50;;;;;;;;;4.67;4.00;;;;;14.64;72.76;99998.97;6236659;22;44816;-81
2023/11/06 19:21:17;;;;;;;;;6.67;4.67;;;;;14.55;72.77;100032.06;6233879;22;47288;-81
2023/11/06 19:23:53;;;;;;;;;5.67;4.00;;;;;14.47;72.23;100008.09;6234993;22;45166;-81
2023/11/06 19:26:18;;;;;;;;;2.00;2.00;;;;;14.54;72.80;100025.84;6237019;22;44812;-81
2023/11/06 19:28:44;;;;;;;;;3.67;3.67;;;;;14.54;72.79;100033.88;6236760;22;44760;-82
2023/11/06 19:31:10;;;;;;;;;2.67;2.67;;;;;14.47;72.85;100024.13;6261678;22;46911;-81
2023/11/06 19:33:43;;;;;;;;;3.00;3.00;;;;;14.57;72.60;100036.50;6237765;22;44684;-81
2023/11/06 19:36:14;;;;;;;;;4.00;3.00;;;;;14.63;72.78;100050.72;6228455;22;44876;-81
2023/11/06 19:38:47;;;;;;;;;3.00;3.00;;;;;14.87;72.62;100033.44;6187431;22;44840;-82
2023/11/06 19:41:13;;;;;;;;;2.00;2.00;;;;;14.52;72.77;100027.66;6180409;23;46830;-81
2023/11/06 19:43:39;;;;;;;;;3.33;3.33;;;;;14.55;72.82;100043.66;6207360;22;44752;-82
2023/11/06 19:46:07;;;;;;;;;4.00;4.00;;;;;14.61;72.86;100053.41;6180243;22;44897;-82
2023/11/06 19:48:34;;;;;;;;;2.00;2.00;;;;;14.70;72.71;100037.22;6206792;22;44767;-82
2023/11/06 19:51:00;;;;;;;;;5.00;3.33;;;;;14.62;72.84;100054.28;6178320;23;45229;-81
2023/11/06 19:53:26;;;;;;;;;4.33;4.33;;;;;14.60;72.75;100063.25;6202420;22;45034;-82
2023/11/06 19:55:51;;;;;;;;;2.67;2.67;;;;;14.65;72.82;100062.31;6207437;22;44729;-82
2023/11/06 19:58:16;;;;;;;;;4.00;4.00;;;;;14.67;72.94;100061.38;6205917;22;44803;-81
2023/11/06 20:00:43;;;;;;;;;7.00;3.00;;;;;14.66;72.96;100061.38;6206550;22;44996;-83
2023/11/06 20:03:09;;;;;;;;;3.00;3.00;;;;;14.63;73.05;100061.44;6205991;23;44775;-82
2023/11/06 20:05:34;;;;;;;;;5.00;5.00;;;;;14.67;73.22;100065.84;6205471;22;44902;-82
2023/11/06 20:08:01;;;;;;;;;4.00;4.00;;;;;14.67;73.37;100068.50;6180054;23;44909;-82
2023/11/06 20:10:32;;;;;;;;;8.00;5.00;;;;;14.69;73.41;100061.34;6178854;23;47151;-81
2023/11/06 20:12:57;;;;;;;;;5.33;4.67;;;;;14.70;73.48;100060.44;6205747;22;44921;-82
2023/11/06 20:15:23;;;;;;;;;4.33;4.33;;;;;14.69;73.72;100051.53;6179049;23;44745;-81
2023/11/06 20:17:48;;;;;;;;;4.00;4.00;;;;;14.74;73.56;100064.84;6179590;23;45033;-82
2023/11/06 20:20:16;;;;;;;;;2.33;2.33;;;;;14.70;73.91;100057.75;6205581;22;45305;-82
2023/11/06 20:22:42;;;;;;;;;8.33;5.67;;;;;14.72;74.02;100066.66;6179115;23;44840;-81
2023/11/06 20:25:08;;;;;;;;;3.00;3.00;;;;;14.72;74.14;100072.88;6179375;22;44792;-82
2023/11/06 20:27:33;;;;;;;;;3.00;3.00;;;;;14.69;74.66;100069.38;6178848;22;45227;-81
2023/11/06 20:29:58;;;;;;;;;4.00;4.00;;;;;14.73;74.56;100074.66;6177900;23;46828;-81
2023/11/06 20:32:24;;;;;;;;;5.00;5.00;;;;;14.77;74.57;100062.13;6178523;23;44761;-82
2023/11/06 20:34:49;;;;;;;;;7.00;3.67;;;;;14.79;74.77;100076.38;6205428;22;45273;-81
2023/11/06 20:37:15;;;;;;;;;4.33;4.00;;;;;14.80;74.85;100075.44;6179323;22;45191;-80
2023/11/06 20:39:41;;;;;;;;;2.00;2.00;;;;;14.89;75.01;100064.63;6236761;22;45280;-81
2023/11/06 20:42:08;;;;;;;;;2.00;2.00;;;;;14.74;75.10;100075.53;6210589;22;44910;-82
2023/11/06 20:44:33;;;;;;;;;3.33;3.33;;;;;14.73;75.39;100066.63;6209856;22;44880;-81
2023/11/06 20:47:05;;;;;;;;;5.00;3.00;;;;;14.96;75.36;100077.00;6210377;22;44815;-82
2023/11/06 20:49:31;;;;;;;;;3.00;3.00;;;;;14.76;75.58;100087.09;6236949;22;45084;-82
2023/11/06 20:51:56;;;;;;;;;2.00;2.00;;;;;14.76;75.85;100082.63;6210234;22;44873;-82
2023/11/06 20:54:21;;;;;;;;;3.00;3.00;;;;;14.77;75.87;100080.88;6237447;22;45178;-81
2023/11/06 20:56:47;;;;;;;;;2.33;2.33;;;;;14.76;76.01;100074.59;6210727;22;44842;-81
2023/11/06 20:59:13;;;;;;;;;4.67;3.00;;;;;14.93;76.38;100077.06;6237316;22;45343;-82
2023/11/06 21:01:39;;;;;;;;;2.00;1.00;;;;;14.79;76.19;100082.59;6233739;22;44804;-82
2023/11/06 21:04:04;;;;;;;;;3.00;3.00;;;;;14.84;76.30;100090.56;6233924;22;45244;-82
2023/11/06 21:06:34;;;;;;;;;2.00;1.33;;;;;14.84;76.17;100087.00;6237363;22;44824;-82
2023/11/06 21:11:38;;;;;;;;;3.00;3.00;;;;;15.00;76.36;100068.00;6221883;22;45295;-82
2023/11/06 21:14:06;;;;;;;;;2.33;2.00;;;;;14.79;76.59;100068.34;6237377;22;44843;-82
2023/11/06 21:16:35;;;;;;;;;0.00;0.00;;;;;14.86;76.15;100086.06;6237949;22;45252;-82
2023/11/06 21:19:01;;;;;;;;;3.67;3.67;;;;;14.90;76.35;100086.91;6235673;22;47214;-82
2023/11/06 21:21:28;;;;;;;;;6.33;5.00;;;;;15.10;76.46;100092.00;6235772;22;45078;-81
2023/11/06 21:23:55;;;;;;;;;5.67;4.33;;;;;14.86;76.68;100087.88;6235636;22;44772;-81
2023/11/06 21:26:22;;;;;;;;;1.67;1.67;;;;;14.92;76.67;100096.69;6236710;22;44774;-81
2023/11/06 21:28:47;;;;;;;;;3.50;3.00;;;;;14.92;76.69;100091.34;6236128;22;45631;-81
2023/11/06 21:31:14;;;;;;;;;5.00;5.00;;;;;15.03;77.15;100092.97;6236469;22;44859;-82
2023/11/06 21:33:41;;;;;;;;;4.00;4.00;;;;;14.86;77.40;100096.78;6236274;22;44898;-82
2023/11/06 21:36:07;;;;;;;;;4.00;3.00;;;;;14.85;77.82;100087.00;6234451;22;44816;-81
2023/11/06 21:38:32;;;;;;;;;3.67;3.00;;;;;14.84;77.76;100098.59;6235394;22;46469;-82
2023/11/06 21:40:58;;;;;;;;;3.25;3.00;;;;;14.82;77.86;100095.06;6234875;22;44874;-82
2023/11/06 21:43:23;;;;;;;;;3.33;3.00;;;;;14.78;78.67;100096.91;6235997;22;44793;-81
2023/11/06 21:45:48;;;;;;;;;3.00;3.00;;;;;14.77;79.06;100086.22;6236292;22;44840;-81
2023/11/06 21:48:14;;;;;;;;;4.00;2.00;;;;;14.74;79.32;100103.19;6234239;22;47129;-81
2023/11/06 21:50:39;;;;;;;;;3.25;2.00;;;;;14.73;79.29;100100.56;6237028;22;44815;-82
2023/11/06 21:53:07;;;;;;;;;3.00;3.00;;;;;14.72;79.83;100098.75;6235571;22;44877;-82
2023/11/06 21:55:36;;;;;;;;;3.50;3.25;;;;;14.74;80.17;100113.88;6235700;22;44808;-82
2023/11/06 21:58:02;;;;;;;;;4.33;3.33;;;;;14.70;80.10;100108.59;6235606;22;47634;-82
2023/11/06 22:00:27;;;;;;;;;5.33;4.33;;;;;14.62;80.29;100102.47;6236377;22;44872;-82
2023/11/06 22:02:53;;;;;;;;;2.67;2.67;;;;;14.64;80.23;100108.69;6237557;22;44971;-81
2023/11/06 22:05:20;;;;;;;;;4.00;2.00;;;;;14.69;80.35;100114.88;6236236;22;44829;-81
2023/11/06 22:07:48;;;;;;;;;5.00;5.00;;;;;14.63;80.44;100110.47;6235756;22;46227;-81